createdAt,value
2022-08-23T00:01:51.976Z,17.25
2022-08-23T00:04:36.946Z,17.26
2022-08-23T00:07:07.418Z,17.13
2022-08-23T00:09:34.810Z,17.31
2022-08-23T00:12:16.197Z,17.39
2022-08-23T00:14:54.771Z,17.29
2022-08-23T00:17:34.065Z,17.30
2022-08-23T00:20:04.669Z,17.17
2022-08-23T00:22:31.361Z,17.23
2022-08-23T00:24:58.025Z,17.26
2022-08-23T00:27:24.746Z,17.23
2022-08-23T00:29:54.636Z,17.31
2022-08-23T00:32:30.780Z,17.28
2022-08-23T00:34:59.660Z,17.21
2022-08-23T00:37:28.628Z,17.26
2022-08-23T00:39:55.640Z,17.20
2022-08-23T00:43:11.410Z,17.20
2022-08-23T00:46:21.539Z,17.16
2022-08-23T00:48:48.771Z,17.13
2022-08-23T00:51:46.902Z,17.07
2022-08-23T00:54:22.513Z,17.11
2022-08-23T00:56:51.006Z,17.19
2022-08-23T00:59:18.386Z,16.85
2022-08-23T01:01:45.466Z,17.02
2022-08-23T01:04:13.653Z,17.12
2022-08-23T01:07:07.716Z,16.68
2022-08-23T01:09:34.462Z,16.83
2022-08-23T01:12:07.065Z,16.91
2022-08-23T01:14:40.661Z,16.82
2022-08-23T01:17:11.045Z,16.88
2022-08-23T01:19:41.377Z,17.00
2022-08-23T01:22:23.846Z,16.84
2022-08-23T01:25:05.879Z,16.96
2022-08-23T01:27:33.762Z,16.76
2022-08-23T01:30:00.437Z,16.70
2022-08-23T01:32:27.409Z,16.76
2022-08-23T01:34:54.172Z,16.71
2022-08-23T01:37:22.130Z,16.55
2022-08-23T01:39:48.886Z,16.74
2022-08-23T01:42:15.747Z,16.62
2022-08-23T01:44:42.566Z,16.51
2022-08-23T01:47:09.449Z,16.62
2022-08-23T01:49:36.529Z,16.72
2022-08-23T01:52:04.037Z,16.83
2022-08-23T01:54:30.730Z,16.68
2022-08-23T01:56:57.440Z,16.67
2022-08-23T01:59:24.407Z,16.88
2022-08-23T02:01:51.845Z,16.77
2022-08-23T02:04:18.653Z,16.93
2022-08-23T02:06:45.825Z,16.77
2022-08-23T02:09:17.238Z,16.82
2022-08-23T02:11:45.760Z,16.88
2022-08-23T02:14:15.284Z,16.95
2022-08-23T02:16:59.946Z,16.73
2022-08-23T02:19:30.179Z,16.64
2022-08-23T02:21:56.887Z,16.66
2022-08-23T02:24:25.431Z,16.92
2022-08-23T02:26:56.792Z,16.89
2022-08-23T02:29:25.475Z,16.81
2022-08-23T02:31:52.589Z,16.90
2022-08-23T02:34:20.348Z,16.96
2022-08-23T02:36:47.821Z,16.97
2022-08-23T02:39:16.632Z,16.94
2022-08-23T02:41:43.443Z,16.85
2022-08-23T02:44:11.164Z,16.88
2022-08-23T02:46:39.014Z,16.86
2022-08-23T02:49:06.472Z,16.92
2022-08-23T02:51:34.539Z,16.68
2022-08-23T02:54:01.561Z,16.93
2022-08-23T02:56:28.335Z,16.88
2022-08-23T02:58:55.133Z,16.79
2022-08-23T03:01:28.824Z,16.87
2022-08-23T03:03:56.581Z,16.88
2022-08-23T03:06:25.524Z,16.92
2022-08-23T03:08:54.396Z,16.76
2022-08-23T03:11:22.804Z,16.99
2022-08-23T03:13:51.013Z,17.06
2022-08-23T03:16:19.262Z,16.88
2022-08-23T03:18:46.869Z,17.00
2022-08-23T03:21:14.277Z,16.97
2022-08-23T03:23:41.124Z,16.75
2022-08-23T03:26:10.742Z,16.66
2022-08-23T03:28:40.034Z,16.98
2022-08-23T03:31:08.454Z,16.88
2022-08-23T03:33:35.917Z,17.12
2022-08-23T03:36:06.594Z,17.13
2022-08-23T03:38:34.375Z,17.16
2022-08-23T03:41:01.576Z,17.00
2022-08-23T03:43:28.991Z,16.96
2022-08-23T03:45:56.133Z,17.05
2022-08-23T03:48:22.853Z,16.91
2022-08-23T03:50:49.496Z,16.87
2022-08-23T03:53:16.797Z,16.98
2022-08-23T03:55:44.385Z,17.10
2022-08-23T03:58:12.033Z,17.03
2022-08-23T04:00:39.174Z,17.10
2022-08-23T04:03:06.030Z,17.08
2022-08-23T04:05:32.846Z,16.98
2022-08-23T04:08:01.982Z,17.08
2022-08-23T04:10:28.943Z,17.03
2022-08-23T04:12:55.639Z,17.02
2022-08-23T04:15:23.414Z,17.07
2022-08-23T04:17:50.348Z,16.99
2022-08-23T04:20:17.874Z,16.91
2022-08-23T04:22:45.948Z,16.87
2022-08-23T04:25:34.432Z,16.84
2022-08-23T04:28:00.767Z,16.65
2022-08-23T04:30:28.001Z,16.74
2022-08-23T04:32:55.473Z,16.70
2022-08-23T04:35:22.596Z,16.63
2022-08-23T04:37:49.365Z,16.64
2022-08-23T04:40:34.788Z,16.71
2022-08-23T04:43:02.486Z,16.80
2022-08-23T04:45:32.606Z,16.71
2022-08-23T04:47:59.646Z,16.75
2022-08-23T04:50:26.733Z,16.78
2022-08-23T04:52:53.530Z,16.60
2022-08-23T04:55:20.254Z,16.55
2022-08-23T04:57:46.946Z,16.67
2022-08-23T05:00:14.649Z,16.60
2022-08-23T05:02:41.489Z,16.60
2022-08-23T05:05:11.173Z,16.56
2022-08-23T05:07:42.825Z,16.49
2022-08-23T05:10:13.409Z,16.43
2022-08-23T05:12:40.861Z,16.53
2022-08-23T05:15:09.570Z,16.49
2022-08-23T05:17:37.304Z,16.31
2022-08-23T05:20:08.453Z,16.46
2022-08-23T05:22:36.814Z,16.45
2022-08-23T05:25:04.398Z,16.42
2022-08-23T05:27:31.334Z,16.51
2022-08-23T05:29:58.258Z,16.66
2022-08-23T05:32:25.446Z,16.72
2022-08-23T05:34:52.090Z,16.73
2022-08-23T05:37:18.835Z,16.80
2022-08-23T05:39:45.749Z,16.59
2022-08-23T05:42:16.084Z,16.82
2022-08-23T05:44:44.613Z,16.82
2022-08-23T05:47:17.601Z,16.86
2022-08-23T05:49:53.037Z,16.87
2022-08-23T05:52:19.881Z,16.79
2022-08-23T05:54:46.596Z,16.86
2022-08-23T05:57:13.296Z,16.95
2022-08-23T05:59:42.040Z,16.79
2022-08-23T06:02:09.221Z,16.85
2022-08-23T06:04:36.263Z,16.88
2022-08-23T06:07:03.931Z,16.96
2022-08-23T06:09:30.602Z,17.00
2022-08-23T06:11:58.785Z,17.13
2022-08-23T06:14:25.573Z,17.09
2022-08-23T06:16:56.020Z,17.10
2022-08-23T06:19:24.292Z,17.32
2022-08-23T06:21:52.554Z,17.22
2022-08-23T06:24:20.089Z,17.23
2022-08-23T06:26:47.039Z,17.13
2022-08-23T06:29:16.991Z,17.06
2022-08-23T06:31:47.205Z,17.15
2022-08-23T06:34:27.888Z,17.02
2022-08-23T06:36:57.282Z,17.21
2022-08-23T06:39:26.152Z,17.38
2022-08-23T06:41:53.474Z,17.60
2022-08-23T06:44:20.466Z,17.42
2022-08-23T06:46:48.900Z,17.54
2022-08-23T06:49:16.720Z,17.60
2022-08-23T06:51:49.418Z,17.71
2022-08-23T06:54:19.652Z,17.97
2022-08-23T06:56:46.871Z,17.89
2022-08-23T06:59:14.653Z,18.15
2022-08-23T07:01:49.171Z,18.38
2022-08-23T07:04:19.706Z,18.46
2022-08-23T07:06:46.878Z,18.39
2022-08-23T07:09:14.464Z,18.55
2022-08-23T07:11:41.730Z,18.73
2022-08-23T07:14:15.141Z,18.92
2022-08-23T07:16:53.511Z,18.97
2022-08-23T07:19:23.054Z,18.93
2022-08-23T07:21:56.133Z,18.84
2022-08-23T07:24:23.072Z,18.80
2022-08-23T07:26:52.306Z,19.40
2022-08-23T07:29:20.883Z,19.80
2022-08-23T07:31:50.878Z,19.47
2022-08-23T07:34:18.440Z,19.58
2022-08-23T07:36:47.905Z,19.74
2022-08-23T07:39:15.869Z,19.83
2022-08-23T07:41:43.314Z,19.97
2022-08-23T07:44:11.693Z,19.78
2022-08-23T07:46:43.008Z,19.94
2022-08-23T07:49:11.809Z,20.07
2022-08-23T07:51:42.177Z,20.43
2022-08-23T07:54:10.453Z,20.45
2022-08-23T07:56:37.826Z,21.13
2022-08-23T07:59:05.988Z,21.46
2022-08-23T08:01:33.716Z,21.69
2022-08-23T08:04:03.654Z,22.06
2022-08-23T08:06:35.597Z,22.17
2022-08-23T08:09:04.403Z,22.25
2022-08-23T08:11:35.133Z,21.85
2022-08-23T08:14:06.646Z,21.79
2022-08-23T08:16:36.534Z,21.39
2022-08-23T08:19:07.855Z,20.68
2022-08-23T08:21:35.586Z,20.78
2022-08-23T08:24:03.118Z,20.72
2022-08-23T08:26:29.897Z,20.89
2022-08-23T08:28:56.612Z,20.72
2022-08-23T08:31:24.570Z,20.80
2022-08-23T08:33:51.606Z,20.85
2022-08-23T08:36:39.936Z,20.89
2022-08-23T08:39:10.670Z,20.71
2022-08-23T08:42:05.248Z,20.56
2022-08-23T08:44:47.242Z,20.36
2022-08-23T08:47:23.184Z,20.24
2022-08-23T08:49:58.674Z,20.39
2022-08-23T08:52:32.062Z,20.55
2022-08-23T08:55:25.117Z,21.60
2022-08-23T08:57:55.051Z,21.60
2022-08-23T09:00:26.913Z,21.93
2022-08-23T09:02:55.750Z,22.37
2022-08-23T09:05:27.784Z,21.68
2022-08-23T09:08:09.816Z,21.60
2022-08-23T09:10:45.554Z,21.69
2022-08-23T09:13:46.277Z,21.15
2022-08-23T09:16:34.551Z,21.24
2022-08-23T09:19:08.831Z,21.39
2022-08-23T09:21:49.675Z,20.93
2022-08-23T09:24:19.720Z,21.07
2022-08-23T09:26:57.754Z,21.54
2022-08-23T09:29:31.248Z,21.80
2022-08-23T09:32:04.365Z,22.06
2022-08-23T09:34:38.257Z,22.72
2022-08-23T09:37:09.878Z,22.73
2022-08-23T09:39:55.471Z,22.93
2022-08-23T09:42:42.524Z,22.96
2022-08-23T09:45:35.151Z,22.98
2022-08-23T09:48:03.141Z,23.43
2022-08-23T09:50:42.338Z,23.79
2022-08-23T09:53:11.990Z,24.47
2022-08-23T09:55:48.842Z,23.08
2022-08-23T09:58:53.731Z,23.45
2022-08-23T10:01:28.870Z,23.79
2022-08-23T10:04:17.808Z,23.42
2022-08-23T10:06:46.483Z,22.91
2022-08-23T10:09:42.583Z,23.55
2022-08-23T10:12:09.330Z,23.38
2022-08-23T10:14:37.029Z,23.08
2022-08-23T10:17:19.040Z,23.55
2022-08-23T10:20:15.125Z,23.34
2022-08-23T10:22:59.265Z,24.18
2022-08-23T10:25:59.035Z,23.37
2022-08-23T10:29:25.926Z,23.17
2022-08-23T10:32:06.925Z,22.59
2022-08-23T10:34:34.163Z,22.86
2022-08-23T10:37:15.959Z,22.69
2022-08-23T10:40:03.976Z,22.58
2022-08-23T10:43:07.658Z,22.91
2022-08-23T10:45:39.289Z,22.73
2022-08-23T10:48:37.165Z,22.56
2022-08-23T10:51:31.616Z,21.90
2022-08-23T10:54:07.843Z,22.23
2022-08-23T10:56:51.016Z,21.84
2022-08-23T10:59:25.629Z,22.13
2022-08-23T11:02:04.454Z,22.37
2022-08-23T11:04:34.822Z,22.59
2022-08-23T11:07:14.473Z,22.71
2022-08-23T11:09:52.397Z,22.49
2022-08-23T11:12:21.739Z,22.10
2022-08-23T11:15:02.586Z,22.05
2022-08-23T11:17:52.206Z,21.93
2022-08-23T11:20:49.911Z,21.96
2022-08-23T11:23:30.679Z,21.92
2022-08-23T11:25:57.532Z,21.43
2022-08-23T11:28:24.181Z,20.93
2022-08-23T11:30:57.811Z,21.10
2022-08-23T11:33:42.454Z,21.21
2022-08-23T11:36:09.201Z,20.70
2022-08-23T11:38:47.791Z,21.11
2022-08-23T11:41:20.646Z,21.60
2022-08-23T11:44:04.959Z,21.99
2022-08-23T11:46:36.071Z,21.88
2022-08-23T11:49:20.864Z,22.43
2022-08-23T11:52:12.086Z,22.86
2022-08-23T11:54:54.518Z,23.26
2022-08-23T11:57:48.586Z,22.83
2022-08-23T12:00:29.155Z,23.39
2022-08-23T12:03:22.088Z,23.72
2022-08-23T12:05:52.080Z,24.02
2022-08-23T12:08:23.142Z,24.28
2022-08-23T12:10:51.332Z,24.30
2022-08-23T12:13:21.067Z,24.39
2022-08-23T12:16:16.585Z,24.21
2022-08-23T12:18:53.536Z,23.91
2022-08-23T12:21:47.734Z,24.08
2022-08-23T12:24:32.343Z,24.52
2022-08-23T12:27:26.847Z,24.54
2022-08-23T12:30:04.242Z,24.49
2022-08-23T12:32:54.614Z,24.44
2022-08-23T12:35:33.682Z,23.83
2022-08-23T12:38:24.572Z,24.29
2022-08-23T12:40:54.876Z,24.28
2022-08-23T12:43:27.897Z,24.49
2022-08-23T12:45:57.981Z,24.26
2022-08-23T12:48:33.461Z,24.72
2022-08-23T12:51:08.093Z,24.45
2022-08-23T12:53:41.466Z,23.96
2022-08-23T12:56:31.747Z,23.60
2022-08-23T12:59:05.071Z,23.49
2022-08-23T13:01:37.276Z,23.57
2022-08-23T13:04:11.040Z,23.74
2022-08-23T13:06:45.385Z,24.29
2022-08-23T13:09:22.262Z,24.23
2022-08-23T13:11:49.291Z,24.24
2022-08-23T13:14:25.389Z,24.25
2022-08-23T13:16:52.771Z,23.92
2022-08-23T13:19:30.809Z,23.79
2022-08-23T13:22:22.530Z,24.29
2022-08-23T13:25:29.333Z,23.90
2022-08-23T13:28:19.599Z,23.50
2022-08-23T13:31:02.279Z,24.26
2022-08-23T13:33:29.446Z,23.55
2022-08-23T13:36:21.367Z,23.64
2022-08-23T13:38:48.944Z,23.58
2022-08-23T13:41:38.445Z,23.42
2022-08-23T13:44:08.649Z,23.60
2022-08-23T13:46:45.261Z,23.84
2022-08-23T13:49:20.247Z,23.63
2022-08-23T13:52:18.365Z,24.19
2022-08-23T13:54:46.075Z,23.93
2022-08-23T13:57:20.169Z,23.49
2022-08-23T13:59:53.622Z,23.54
2022-08-23T14:02:22.598Z,23.40
2022-08-23T14:04:49.438Z,22.86
2022-08-23T14:07:16.732Z,23.18
2022-08-23T14:09:44.190Z,23.70
2022-08-23T14:12:21.771Z,23.11
2022-08-23T14:14:49.184Z,23.51
2022-08-23T14:17:17.136Z,23.64
2022-08-23T14:22:34.478Z,23.59
2022-08-23T14:25:01.285Z,23.29
2022-08-23T14:27:28.161Z,23.19
2022-08-23T14:29:55.060Z,23.47
2022-08-23T14:32:21.969Z,23.37
2022-08-23T14:34:49.361Z,23.39
2022-08-23T14:40:04.293Z,23.48
2022-08-23T14:42:31.939Z,23.19
2022-08-23T14:44:58.651Z,23.50
2022-08-23T14:47:25.618Z,23.93
2022-08-23T14:49:54.064Z,23.91
2022-08-23T14:52:21.600Z,23.61
2022-08-23T14:54:49.553Z,23.94
2022-08-23T14:57:16.772Z,23.75
2022-08-23T14:59:43.809Z,23.52
2022-08-23T15:02:13.587Z,23.65
2022-08-23T15:04:41.796Z,24.04
2022-08-23T15:07:23.748Z,24.02
2022-08-23T15:09:54.534Z,24.16
2022-08-23T15:15:21.949Z,23.73
2022-08-23T15:17:55.101Z,23.83
2022-08-23T15:20:23.353Z,23.81
2022-08-23T15:22:55.065Z,23.81
2022-08-23T15:25:25.448Z,23.88
2022-08-23T15:27:52.450Z,23.78
2022-08-23T15:30:19.251Z,23.98
2022-08-23T15:32:52.647Z,23.54
2022-08-23T15:35:24.770Z,23.88
2022-08-23T15:37:53.662Z,23.88
2022-08-23T15:40:21.114Z,23.53
2022-08-23T15:42:47.889Z,23.35
2022-08-23T15:45:15.530Z,23.70
2022-08-23T15:47:54.352Z,23.87
2022-08-23T15:50:25.316Z,24.15
2022-08-23T15:52:52.533Z,23.13
2022-08-23T15:55:20.105Z,23.29
2022-08-23T15:57:53.483Z,23.57
2022-08-23T16:00:23.222Z,22.81
2022-08-23T16:03:18.437Z,23.08
2022-08-23T16:05:39.399Z,22.73
2022-08-23T16:08:07.745Z,22.84
2022-08-23T16:10:35.400Z,22.45
2022-08-23T16:13:03.672Z,22.49
2022-08-23T16:15:30.570Z,22.65
2022-08-23T16:17:57.469Z,23.03
2022-08-23T16:20:24.346Z,23.52
2022-08-23T16:22:51.051Z,23.91
2022-08-23T16:25:17.934Z,23.39
2022-08-23T16:27:44.677Z,23.18
2022-08-23T16:30:13.089Z,22.43
2022-08-23T16:32:40.064Z,22.28
2022-08-23T16:35:07.770Z,22.23
2022-08-23T16:37:36.218Z,21.75
2022-08-23T16:40:05.930Z,21.74
2022-08-23T16:42:32.707Z,22.03
2022-08-23T16:44:59.419Z,22.07
2022-08-23T16:47:26.467Z,21.72
2022-08-23T16:49:53.408Z,22.08
2022-08-23T16:52:20.585Z,21.75
2022-08-23T16:54:55.442Z,21.74
2022-08-23T16:57:22.288Z,21.84
2022-08-23T16:59:49.834Z,22.27
2022-08-23T17:02:37.212Z,22.36
2022-08-23T17:05:07.478Z,22.14
2022-08-23T17:07:34.369Z,21.59
2022-08-23T17:10:01.221Z,21.72
2022-08-23T17:12:28.814Z,21.45
2022-08-23T17:14:57.514Z,21.38
2022-08-23T17:17:24.679Z,21.76
2022-08-23T17:19:51.589Z,21.55
2022-08-23T17:22:18.557Z,21.51
2022-08-23T17:24:45.268Z,21.64
2022-08-23T17:27:19.120Z,21.33
2022-08-23T17:29:46.415Z,21.52
2022-08-23T17:32:13.317Z,21.51
2022-08-23T17:34:39.953Z,21.60
2022-08-23T17:37:18.845Z,21.70
2022-08-23T17:39:45.760Z,21.34
2022-08-23T17:42:13.330Z,21.45
2022-08-23T17:44:40.638Z,21.57
2022-08-23T17:47:12.295Z,21.82
2022-08-23T17:49:39.006Z,21.81
2022-08-23T17:52:06.309Z,21.67
2022-08-23T17:54:33.441Z,21.61
2022-08-23T17:57:00.889Z,21.66
2022-08-23T17:59:27.756Z,21.40
2022-08-23T18:01:54.557Z,21.19
2022-08-23T18:04:21.388Z,21.41
2022-08-23T18:06:48.259Z,21.33
2022-08-23T18:09:15.743Z,21.57
2022-08-23T18:11:42.550Z,21.83
2022-08-23T18:14:09.875Z,21.84
2022-08-23T18:16:36.909Z,21.59
2022-08-23T18:19:07.270Z,21.89
2022-08-23T18:21:39.947Z,21.86
2022-08-23T18:24:07.739Z,21.73
2022-08-23T18:26:54.725Z,21.59
2022-08-23T18:29:22.139Z,21.58
2022-08-23T18:31:49.071Z,21.57
2022-08-23T18:34:17.019Z,21.42
2022-08-23T18:36:44.949Z,21.51
2022-08-23T18:39:14.382Z,21.53
2022-08-23T18:41:42.009Z,21.56
2022-08-23T18:44:10.074Z,21.75
2022-08-23T18:46:39.325Z,21.52
2022-08-23T18:49:07.341Z,21.54
2022-08-23T18:51:34.150Z,21.56
2022-08-23T18:54:00.839Z,21.56
2022-08-23T18:56:27.987Z,21.45
2022-08-23T18:58:54.669Z,21.34
2022-08-23T19:01:27.581Z,21.47
2022-08-23T19:03:55.424Z,21.60
2022-08-23T19:06:22.741Z,21.23
2022-08-23T19:08:49.975Z,21.55
2022-08-23T19:11:16.700Z,21.52
2022-08-23T19:13:43.483Z,21.37
2022-08-23T19:16:15.583Z,21.54
2022-08-23T19:18:45.119Z,21.35
2022-08-23T19:21:14.080Z,21.19
2022-08-23T19:23:41.402Z,21.11
2022-08-23T19:26:17.908Z,21.15
2022-08-23T19:28:44.556Z,21.12
2022-08-23T19:31:11.678Z,20.78
2022-08-23T19:33:38.609Z,20.80
2022-08-23T19:36:05.867Z,20.84
2022-08-23T19:38:33.486Z,20.89
2022-08-23T19:41:02.371Z,20.62
2022-08-23T19:43:29.438Z,20.10
2022-08-23T19:45:58.635Z,20.02
2022-08-23T19:48:25.454Z,20.13
2022-08-23T19:50:52.400Z,19.93
2022-08-23T19:53:19.255Z,19.71
2022-08-23T19:55:46.041Z,19.79
2022-08-23T19:58:14.528Z,19.46
2022-08-23T20:00:42.984Z,19.42
2022-08-23T20:03:10.059Z,19.33
2022-08-23T20:05:36.945Z,18.95
2022-08-23T20:08:04.060Z,18.94
2022-08-23T20:10:30.762Z,19.18
2022-08-23T20:12:57.526Z,19.26
2022-08-23T20:15:24.371Z,19.09
2022-08-23T20:17:54.877Z,19.05
2022-08-23T20:20:21.661Z,18.88
2022-08-23T20:23:06.819Z,19.13
2022-08-23T20:25:33.734Z,19.18
2022-08-23T20:28:00.703Z,19.29
2022-08-23T20:30:27.408Z,19.09
2022-08-23T20:32:57.292Z,19.22
2022-08-23T20:35:24.342Z,19.25
2022-08-23T20:37:52.083Z,19.51
2022-08-23T20:40:19.905Z,19.24
2022-08-23T20:42:46.962Z,19.25
2022-08-23T20:45:13.671Z,19.08
2022-08-23T20:47:41.336Z,18.83
2022-08-23T20:50:08.551Z,18.70
2022-08-23T20:52:35.303Z,18.85
2022-08-23T20:55:02.729Z,18.82
2022-08-23T20:57:37.311Z,18.67
2022-08-23T21:00:07.287Z,18.76
2022-08-23T21:02:34.135Z,18.75
2022-08-23T21:05:01.179Z,18.60
2022-08-23T21:07:31.671Z,18.82
2022-08-23T21:09:58.498Z,18.76
2022-08-23T21:12:25.214Z,18.36
2022-08-23T21:14:52.106Z,18.32
2022-08-23T21:17:18.769Z,18.26
2022-08-23T21:19:45.506Z,18.41
2022-08-23T21:22:12.143Z,18.55
2022-08-23T21:24:39.546Z,18.45
2022-08-23T21:27:06.512Z,18.60
2022-08-23T21:29:36.383Z,18.52
2022-08-23T21:32:03.568Z,18.46
2022-08-23T21:34:33.347Z,18.49
2022-08-23T21:37:00.222Z,18.33
2022-08-23T21:39:26.990Z,18.41
2022-08-23T21:41:57.965Z,18.76
2022-08-23T21:44:25.859Z,18.17
2022-08-23T21:46:52.876Z,18.36
2022-08-23T21:49:21.092Z,18.56
2022-08-23T21:51:49.174Z,18.71
2022-08-23T21:54:17.941Z,18.24
2022-08-23T21:56:46.188Z,18.49
2022-08-23T21:59:17.951Z,18.28
2022-08-23T22:01:45.853Z,18.27
2022-08-23T22:04:14.666Z,18.11
2022-08-23T22:06:44.105Z,18.30
2022-08-23T22:09:13.702Z,18.29
2022-08-23T22:11:42.989Z,18.43
2022-08-23T22:14:18.431Z,18.43
2022-08-23T22:16:45.341Z,18.36
2022-08-23T22:19:15.173Z,18.04
2022-08-23T22:21:46.052Z,17.90
2022-08-23T22:24:13.612Z,18.08
2022-08-23T22:26:55.481Z,17.89
2022-08-23T22:29:24.819Z,18.16
2022-08-23T22:31:51.746Z,17.93
2022-08-23T22:34:18.719Z,18.11
2022-08-23T22:36:48.152Z,18.17
2022-08-23T22:39:19.499Z,18.32
2022-08-23T22:41:46.197Z,18.06
2022-08-23T22:44:15.273Z,17.82
2022-08-23T22:46:44.277Z,17.88
2022-08-23T22:49:10.989Z,18.05
2022-08-23T22:51:38.166Z,18.01
2022-08-23T22:54:09.926Z,18.20
2022-08-23T22:56:46.058Z,17.92
2022-08-23T22:59:15.302Z,18.02
2022-08-23T23:01:47.687Z,18.28
2022-08-23T23:04:19.668Z,18.06
2022-08-23T23:06:52.787Z,18.32
2022-08-23T23:09:19.651Z,18.19
2022-08-23T23:11:48.854Z,18.18
2022-08-23T23:14:17.593Z,18.33
2022-08-23T23:16:50.948Z,18.42
2022-08-23T23:19:39.084Z,18.44
2022-08-23T23:22:07.781Z,17.83
2022-08-23T23:24:37.819Z,18.07
2022-08-23T23:27:08.532Z,18.45
2022-08-23T23:29:35.754Z,18.28
2022-08-23T23:32:02.983Z,18.45
2022-08-23T23:34:29.815Z,18.45
2022-08-23T23:36:59.939Z,18.27
2022-08-23T23:39:27.935Z,18.43
2022-08-23T23:41:58.145Z,18.57
2022-08-23T23:44:31.447Z,18.55
2022-08-23T23:46:59.620Z,18.71
2022-08-23T23:49:32.440Z,18.59
2022-08-23T23:52:03.713Z,18.68
2022-08-23T23:54:37.547Z,18.64
2022-08-23T23:57:06.503Z,18.22
2022-08-23T23:59:35.313Z,18.43
